North Perry, Ohio
Current Conditions -  °F | °C
As of 11:45 AM on Saturday 25 Oct 2014 (Local Time) from KCGF Reporting Station
Broken Clouds Broken Clouds  
Wind Chill: 64°   Ceiling: 5000
Heat Index: 64°   Visibility: 10mi
Dew Point: 54°   Wind: 14mph
Humidity: 68%   Direction: 240°WSW
Pressure: 29.82"   Gusts: 24mph
Location:  41.7672°N, 81.1422°W
Report Text: KCGF 251545Z 24012G21KT 10SM BKN050 BKN150 18/12 A2982
Loading
Personal Weather Stations






























Interactive Weather Map
Tropical Storm Tracking
New forecast layout! Learn more

10-Day Weather Forecast

Advertisements
Track Severe Weather on mobile